Time;durP1;ratioP1;P1;durP2;ratioP2;P2;SDS_P1;SDS_P2;PMS_P1;PMS_P2;Temp;Humidity;BMP_temperature;BMP_pressure;BME280_temperature;BME280_humidity;BME280_pressure;Samples;Min_cycle;Max_cycle;Signal;HPM_P1;HPM_P2
2021/11/24 00:02:12;;;;;;;18.37;12.03;;;;;;;1.05;82.10;100123.22;1718412;82;20113;-76
2021/11/24 00:04:38;;;;;;;21.10;14.10;;;;;;;0.92;82.40;100127.49;1726002;81;21479;-76
2021/11/24 00:07:05;;;;;;;20.92;14.30;;;;;;;0.89;82.59;100131.91;1724114;82;21578;-76
2021/11/24 00:09:33;;;;;;;21.25;14.10;;;;;;;0.91;82.64;100134.41;1730808;82;21552;-76
2021/11/24 00:12:03;;;;;;;;;;;;;;;0.95;82.49;100135.67;1733100;81;21078;-76
2021/11/24 00:14:28;;;;;;;20.17;13.08;;;;;;;0.98;82.39;100140.62;1729974;80;20379;-76
2021/11/24 00:16:55;;;;;;;20.35;13.13;;;;;;;0.97;82.41;100134.94;1737084;81;21510;-76
2021/11/24 00:19:22;;;;;;;17.67;13.00;;;;;;;0.93;82.42;100137.20;1726991;81;21489;-76
2021/11/24 00:21:49;;;;;;;18.37;13.22;;;;;;;0.91;82.62;100134.41;1718552;82;21134;-76
2021/11/24 00:24:15;;;;;;;;;;;;;;;0.89;82.76;100137.78;1741544;80;21070;-76
2021/11/24 00:26:42;;;;;;;21.45;13.58;;;;;;;0.94;82.79;100139.38;1760643;80;20113;-76
2021/11/24 00:29:10;;;;;;;20.30;13.08;;;;;;;0.95;82.70;100144.55;1716716;82;21039;-76
2021/11/24 00:31:37;;;;;;;19.87;13.83;;;;;;;1.00;82.63;100143.41;1729529;82;21083;-76
2021/11/24 00:34:04;;;;;;;18.30;13.08;;;;;;;1.05;82.52;100146.84;1731355;82;21534;-76
2021/11/24 00:36:32;;;;;;;16.87;12.07;;;;;;;1.08;82.46;100149.63;1735453;82;21087;-76
2021/11/24 00:38:58;;;;;;;17.87;13.00;;;;;;;1.06;82.58;100149.02;1721991;82;21502;-76
2021/11/24 00:41:25;;;;;;;20.02;13.58;;;;;;;1.06;82.73;100147.17;1739550;80;21070;-77
2021/11/24 00:43:51;;;;;;;21.27;13.53;;;;;;;1.11;82.76;100150.56;1743911;82;21517;-76
2021/11/24 00:46:18;;;;;;;18.90;13.25;;;;;;;1.17;82.55;100151.92;1735588;81;21074;-76
2021/11/24 00:48:45;;;;;;;17.57;12.65;;;;;;;1.22;82.38;100155.35;1731026;82;21031;-76
2021/11/24 00:51:11;;;;;;;20.08;14.03;;;;;;;1.25;82.30;100150.92;1722149;82;21050;-76
2021/11/24 00:53:38;;;;;;;22.90;14.20;;;;;;;1.25;82.30;100150.92;1726634;82;21059;-76
2021/11/24 00:56:04;;;;;;;22.93;14.90;;;;;;;1.19;82.18;100159.27;1725850;80;21046;-76
2021/11/24 00:58:31;;;;;;;22.70;14.83;;;;;;;1.14;82.36;100156.35;1735083;82;21047;-76
2021/11/24 01:00:58;;;;;;;;;;;;;;;1.13;82.38;100156.58;1753957;81;21091;-76
2021/11/24 01:03:24;;;;;;;20.45;13.35;;;;;;;1.16;82.33;100159.68;1734699;81;20172;-76
2021/11/24 01:05:51;;;;;;;19.00;13.78;;;;;;;1.16;82.26;100154.83;1737998;80;21616;-76
2021/11/24 01:08:18;;;;;;;20.30;13.43;;;;;;;1.17;82.21;100157.83;1742742;81;21035;-76
2021/11/24 01:10:45;;;;;;;18.77;13.80;;;;;;;1.12;82.12;100165.13;1745813;81;21118;-76
2021/11/24 01:13:12;;;;;;;;;;;;;;;1.01;82.22;100167.03;1726607;82;21015;-77
2021/11/24 01:15:39;;;;;;;19.48;13.65;;;;;;;0.94;82.50;100162.16;1739928;82;20103;-76
2021/11/24 01:18:07;;;;;;;17.52;12.25;;;;;;;0.87;82.83;100161.30;1731762;82;21731;-76
2021/11/24 01:21:27;;;;;;;15.98;11.45;;;;;;;0.96;82.72;100157.41;1779827;79;23391;-70
2021/11/24 01:23:54;;;;;;;17.45;12.13;;;;;;;0.94;82.64;100166.17;1738788;81;21049;-70
2021/11/24 01:26:21;;;;;;;15.05;11.38;;;;;;;0.93;82.57;100162.66;1723308;81;21544;-70
2021/11/24 01:28:47;;;;;;;15.98;11.70;;;;;;;0.95;82.53;100163.31;1729275;82;20999;-70
2021/11/24 01:31:14;;;;;;;18.30;12.00;;;;;;;0.95;82.60;100163.81;1728292;81;21042;-70
2021/11/24 01:33:40;;;;;;;15.25;11.95;;;;;;;0.92;82.69;100162.34;1731557;82;20987;-70
2021/11/24 01:36:07;;;;;;;16.45;11.70;;;;;;;0.84;82.77;100166.55;1731172;81;21573;-70
2021/11/24 01:38:34;;;;;;;16.05;11.50;;;;;;;0.84;82.96;100164.38;1704141;82;21442;-70
2021/11/24 01:41:01;;;;;;;15.55;11.55;;;;;;;0.88;82.88;100161.11;1727673;82;21576;-70
2021/11/24 01:43:27;;;;;;;15.00;10.45;;;;;;;0.89;82.79;100165.93;1732314;82;21602;-71
2021/11/24 01:45:53;;;;;;;14.95;10.68;;;;;;;0.92;82.77;100161.54;1734165;81;21620;-70
2021/11/24 01:48:20;;;;;;;;;;;;;;;0.91;82.73;100170.59;1736786;82;21513;-70
2021/11/24 01:50:47;;;;;;;15.43;10.72;;;;;;;0.83;82.82;100172.92;1747485;80;20417;-70
2021/11/24 01:53:14;;;;;;;16.07;12.07;;;;;;;0.69;83.17;100165.01;1745879;81;21039;-70
2021/11/24 01:55:40;;;;;;;16.32;11.85;;;;;;;0.71;83.34;100179.05;1737327;81;21046;-70
2021/11/24 01:58:07;;;;;;;15.08;10.82;;;;;;;0.77;83.22;100175.58;1700219;81;21006;-70
2021/11/24 02:00:35;;;;;;;16.25;11.43;;;;;;;0.80;83.16;100172.49;1729448;81;21038;-70
2021/11/24 02:03:03;;;;;;;15.45;10.93;;;;;;;0.88;83.19;100168.32;1732004;82;21018;-70
2021/11/24 02:05:30;;;;;;;13.30;10.28;;;;;;;0.93;83.15;100159.98;1720747;83;21128;-70
2021/11/24 02:07:56;;;;;;;;;;;;;;;0.94;83.02;100177.73;1743968;81;21043;-70
2021/11/24 02:10:24;;;;;;;15.73;10.67;;;;;;;0.84;82.91;100177.27;1729585;82;20130;-70
2021/11/24 02:12:50;;;;;;;15.80;11.18;;;;;;;0.70;83.21;100174.20;1730284;81;21652;-70
2021/11/24 02:15:17;;;;;;;18.07;11.68;;;;;;;0.71;83.34;100181.73;1730313;83;21573;-71
2021/11/24 02:17:46;;;;;;;17.12;11.12;;;;;;;0.74;83.20;100185.36;1729242;82;21078;-70
2021/11/24 02:20:18;;;;;;;16.25;10.60;;;;;;;0.78;83.07;100185.28;1735755;82;21051;-70
2021/11/24 02:22:44;;;;;;;16.02;11.00;;;;;;;0.82;82.96;100189.19;1736164;82;21455;-70
2021/11/24 02:25:12;;;;;;;17.10;11.88;;;;;;;0.79;82.96;100180.21;1726643;82;21175;-70
2021/11/24 02:27:38;;;;;;;19.15;12.73;;;;;;;0.73;83.07;100181.84;1728408;82;21018;-70
2021/11/24 02:30:06;;;;;;;17.62;12.85;;;;;;;0.72;83.28;100182.03;1727992;81;21047;-70
2021/11/24 02:32:33;;;;;;;17.95;12.73;;;;;;;0.71;83.35;100179.86;1733433;82;21035;-70
2021/11/24 02:35:00;;;;;;;15.53;12.23;;;;;;;0.76;83.19;100188.66;1726150;82;21098;-70
2021/11/24 02:37:26;;;;;;;16.70;12.40;;;;;;;0.80;83.11;100180.03;1711089;83;20967;-69
2021/11/24 02:39:53;;;;;;;19.70;12.37;;;;;;;0.86;83.08;100182.41;1727188;82;21093;-70
2021/11/24 02:42:19;;;;;;;19.60;12.50;;;;;;;0.85;82.99;100182.92;1730425;82;20999;-70
2021/11/24 02:44:45;;;;;;;18.32;13.58;;;;;;;0.76;82.93;100187.31;1726781;82;21019;-70
2021/11/24 02:47:21;;;;;;;18.50;14.28;;;;;;;0.67;83.11;100183.98;1722274;82;21038;-70
2021/11/24 02:49:52;;;;;;;19.17;13.50;;;;;;;0.68;83.31;100183.44;1734234;82;21000;-70
2021/11/24 02:52:20;;;;;;;20.20;13.78;;;;;;;0.74;83.21;100186.19;1731422;82;20983;-69
2021/11/24 02:54:53;;;;;;;19.42;13.50;;;;;;;0.80;83.07;100189.91;1732310;82;21577;-70
2021/11/24 02:57:19;;;;;;;20.27;12.73;;;;;;;0.83;82.96;100190.86;1723669;82;20987;-70
2021/11/24 02:59:46;;;;;;;16.52;12.58;;;;;;;0.83;82.84;100186.83;1723084;82;21639;-70
2021/11/24 03:02:13;;;;;;;18.00;12.65;;;;;;;0.78;82.91;100194.66;1722537;82;21462;-70
2021/11/24 03:04:40;;;;;;;19.73;13.22;;;;;;;0.72;82.98;100198.11;1729391;81;21035;-70
2021/11/24 03:07:06;;;;;;;;;;;;;;;0.74;83.10;100195.56;1727878;82;21050;-69
2021/11/24 03:09:33;;;;;;;17.70;12.73;;;;;;;0.81;83.05;100195.59;1712954;82;20133;-70
2021/11/24 03:12:01;;;;;;;17.35;11.95;;;;;;;0.81;82.90;100207.16;1725140;82;21082;-70
2021/11/24 03:14:28;;;;;;;17.23;11.18;;;;;;;0.76;82.71;100200.20;1705541;82;20992;-70
2021/11/24 03:16:57;;;;;;;16.45;11.30;;;;;;;0.71;82.79;100201.29;1729283;82;21130;-69
2021/11/24 03:19:23;;;;;;;17.10;11.60;;;;;;;0.70;83.03;100201.50;1726991;82;21046;-70
2021/11/24 03:21:50;;;;;;;19.55;12.73;;;;;;;0.68;83.02;100202.20;1731677;82;21062;-69
2021/11/24 03:24:16;;;;;;;17.37;12.35;;;;;;;0.69;82.95;100199.84;1707919;82;21026;-70
2021/11/24 03:26:43;;;;;;;21.70;13.70;;;;;;;0.74;82.91;100208.13;1736998;81;21042;-70
2021/11/24 03:29:09;;;;;;;20.50;13.53;;;;;;;0.73;82.76;100208.64;1738772;82;21530;-69
2021/11/24 03:31:36;;;;;;;20.68;13.30;;;;;;;0.73;82.85;100207.81;1736998;81;21597;-69
2021/11/24 03:34:02;;;;;;;;;;;;;;;0.70;82.95;100215.73;1737258;82;21944;-70
2021/11/24 03:36:29;;;;;;;21.87;13.50;;;;;;;0.64;83.11;100215.16;1731698;82;20419;-70
2021/11/24 03:38:55;;;;;;;24.30;15.90;;;;;;;0.59;83.33;100214.10;1733728;82;21042;-70
2021/11/24 03:41:21;;;;;;;23.20;14.73;;;;;;;0.67;83.31;100213.96;1734796;81;21082;-70
2021/11/24 03:43:48;;;;;;;21.35;14.55;;;;;;;0.72;83.23;100212.84;1733541;82;21019;-70
2021/11/24 03:46:14;;;;;;;;;;;;;;;0.75;83.01;100215.95;1744402;81;21112;-70
2021/11/24 03:48:41;;;;;;;19.27;12.80;;;;;;;0.69;83.01;100221.28;1744759;82;20134;-70
2021/11/24 03:51:07;;;;;;;20.50;13.55;;;;;;;0.59;83.27;100229.67;1717570;82;21035;-70
2021/11/24 03:53:39;;;;;;;18.27;11.60;;;;;;;0.60;83.27;100234.02;1732994;82;21035;-70
2021/11/24 03:56:04;;;;;;;15.10;10.53;;;;;;;0.64;83.11;100229.89;1730477;82;21572;-70
2021/11/24 03:58:30;;;;;;;15.85;11.35;;;;;;;0.65;82.99;100229.39;1732815;82;21051;-70
2021/11/24 04:00:57;;;;;;;14.55;10.10;;;;;;;0.69;83.07;100239.53;1733190;82;21114;-70
2021/11/24 04:03:23;;;;;;;16.60;11.33;;;;;;;0.66;83.13;100231.89;1739514;82;21010;-70
2021/11/24 04:05:52;;;;;;;15.28;11.30;;;;;;;0.61;83.24;100235.65;1732038;82;21031;-70
2021/11/24 04:08:18;;;;;;;15.08;10.68;;;;;;;0.64;83.28;100235.80;1718324;83;21597;-70
2021/11/24 04:10:45;;;;;;;13.75;10.23;;;;;;;0.72;83.15;100236.96;1733745;82;21063;-70
2021/11/24 04:13:13;;;;;;;14.40;10.48;;;;;;;0.82;83.02;100239.61;1739331;82;21051;-70
2021/11/24 04:15:40;;;;;;;13.00;9.70;;;;;;;0.85;82.92;100247.25;1735069;82;21075;-70
2021/11/24 04:18:06;;;;;;;12.78;9.48;;;;;;;0.82;83.04;100240.95;1733414;82;20975;-70
2021/11/24 04:20:33;;;;;;;15.08;10.32;;;;;;;0.82;83.23;100245.47;1736441;81;21067;-70
2021/11/24 04:22:59;;;;;;;;;;;;;;;0.80;83.21;100241.67;1738609;82;21024;-70
2021/11/24 04:25:26;;;;;;;14.98;10.43;;;;;;;0.82;83.14;100238.77;1725860;82;20091;-70
2021/11/24 04:27:52;;;;;;;14.85;10.32;;;;;;;0.85;82.91;100232.51;1722237;82;21633;-70
2021/11/24 04:30:20;;;;;;;14.40;10.13;;;;;;;0.90;82.83;100235.95;1719059;82;21653;-70
2021/11/24 04:32:47;;;;;;;14.23;9.63;;;;;;;0.91;82.84;100233.59;1725250;82;21008;-70
2021/11/24 04:35:14;;;;;;;13.62;10.13;;;;;;;0.89;83.04;100243.16;1736473;81;21647;-70
2021/11/24 04:37:42;;;;;;;13.45;10.05;;;;;;;0.88;83.09;100246.05;1731474;82;21052;-70
2021/11/24 04:40:09;;;;;;;;;;;;;;;0.86;82.99;100240.87;1728440;82;21542;-70
2021/11/24 04:42:37;;;;;;;17.87;10.63;;;;;;;0.92;82.86;100244.09;1726697;82;20119;-70
2021/11/24 04:45:05;;;;;;;13.10;9.70;;;;;;;0.90;82.68;100243.48;1728616;82;21649;-70
2021/11/24 04:47:32;;;;;;;15.43;9.98;;;;;;;0.89;82.69;100245.00;1722129;82;20964;-70
2021/11/24 04:49:59;;;;;;;14.03;10.25;;;;;;;0.88;82.87;100240.69;1729539;81;21628;-70
2021/11/24 04:52:25;;;;;;;12.65;10.00;;;;;;;0.84;82.97;100237.58;1732696;82;21055;-70
2021/11/24 04:54:51;;;;;;;14.60;10.55;;;;;;;0.83;83.09;100247.97;1733017;82;21537;-70
2021/11/24 04:57:18;;;;;;;14.93;10.75;;;;;;;0.87;82.95;100248.41;1730804;82;21522;-70
2021/11/24 04:59:45;;;;;;;13.20;9.70;;;;;;;0.86;82.65;100248.91;1735492;81;21518;-70
2021/11/24 05:02:12;;;;;;;14.28;10.15;;;;;;;0.82;82.65;100246.81;1733935;82;21015;-70
2021/11/24 05:04:39;;;;;;;;;;;;;;;0.78;82.82;100258.98;1736004;81;20979;-70
2021/11/24 05:07:05;;;;;;;17.32;10.80;;;;;;;0.77;82.97;100264.02;1734912;82;20099;-69
2021/11/24 05:09:31;;;;;;;13.90;10.43;;;;;;;0.77;82.97;100266.19;1731319;82;21011;-70
2021/11/24 05:11:59;;;;;;;;;;;;;;;0.82;82.95;100266.91;1721426;82;21068;-70
2021/11/24 05:14:30;;;;;;;14.90;10.55;;;;;;;0.82;82.97;100263.73;1723969;82;20119;-70
2021/11/24 05:16:55;;;;;;;15.65;10.82;;;;;;;0.72;83.28;100270.45;1727893;81;21063;-70
2021/11/24 05:19:23;;;;;;;15.10;10.98;;;;;;;0.72;83.47;100269.95;1722235;82;21028;-70
2021/11/24 05:21:51;;;;;;;15.08;10.58;;;;;;;0.78;83.43;100267.82;1733401;81;21067;-70
2021/11/24 05:24:19;;;;;;;14.43;10.53;;;;;;;0.81;83.40;100267.96;1724959;82;21036;-70
2021/11/24 05:26:45;;;;;;;15.38;10.68;;;;;;;0.78;83.60;100271.84;1726627;82;21537;-70
2021/11/24 05:29:12;;;;;;;15.13;10.40;;;;;;;0.84;83.71;100278.29;1726879;82;21019;-70
2021/11/24 05:31:39;;;;;;;;;;;;;;;0.91;83.56;100269.27;1725867;82;21086;-70
2021/11/24 05:34:05;;;;;;;14.15;9.85;;;;;;;0.98;83.46;100270.65;1736976;82;20154;-70
2021/11/24 05:36:34;;;;;;;11.53;9.33;;;;;;;0.96;83.53;100274.02;1728091;82;21165;-70
2021/11/24 05:39:05;;;;;;;13.05;10.08;;;;;;;0.96;83.71;100273.52;1728970;82;21636;-70
2021/11/24 05:41:31;;;;;;;14.50;10.20;;;;;;;0.94;83.86;100267.53;1728375;82;21023;-70
2021/11/24 05:44:06;;;;;;;15.60;10.85;;;;;;;0.93;83.97;100277.09;1739558;82;21047;-70
2021/11/24 05:46:41;;;;;;;14.80;9.60;;;;;;;0.99;84.05;100280.36;1730186;82;21063;-70
2021/11/24 05:48:57;;;;;;;15.85;10.48;;;;;;;1.07;83.74;100286.88;1733384;82;20991;-70
2021/11/24 05:51:24;;;;;;;14.55;10.50;;;;;;;1.08;83.53;100282.34;1734964;81;20999;-69
2021/11/24 05:53:50;;;;;;;16.35;11.28;;;;;;;1.06;83.51;100287.93;1727691;82;21022;-68
2021/11/24 05:56:17;;;;;;;17.75;11.75;;;;;;;1.00;83.70;100288.19;1728562;82;21074;-69
2021/11/24 05:58:43;;;;;;;17.60;11.30;;;;;;;0.98;83.91;100294.78;1728299;82;21027;-68
2021/11/24 06:01:09;;;;;;;16.12;11.18;;;;;;;1.04;84.06;100289.13;1734939;82;21067;-67
2021/11/24 06:03:36;;;;;;;18.35;11.03;;;;;;;1.11;83.94;100294.02;1738897;82;21532;-67
2021/11/24 06:06:02;;;;;;;15.05;9.98;;;;;;;1.18;83.68;100300.25;1733484;81;21114;-66
2021/11/24 06:08:31;;;;;;;15.63;10.95;;;;;;;1.17;83.58;100298.62;1735440;82;21082;-69
2021/11/24 06:10:57;;;;;;;17.05;11.12;;;;;;;1.13;83.68;100298.69;1725772;82;21577;-67
2021/11/24 06:13:25;;;;;;;15.98;11.68;;;;;;;1.13;83.81;100304.05;1723624;82;21047;-68
2021/11/24 06:15:52;;;;;;;;;;;;;;;1.17;83.74;100303.44;1735107;82;21022;-68
2021/11/24 06:18:20;;;;;;;16.20;10.80;;;;;;;1.23;83.58;100308.04;1739739;82;20134;-68
2021/11/24 06:20:47;;;;;;;16.97;11.33;;;;;;;1.10;83.72;100299.09;1740288;81;21504;-70
2021/11/24 06:23:14;;;;;;;17.25;11.50;;;;;;;1.06;83.94;100314.74;1725291;82;21020;-67
2021/11/24 06:25:41;;;;;;;19.45;11.78;;;;;;;1.11;83.88;100312.78;1732433;81;21146;-68
2021/11/24 06:28:07;;;;;;;15.18;10.72;;;;;;;1.16;83.79;100313.04;1726855;82;20991;-69
2021/11/24 06:30:34;;;;;;;15.90;11.15;;;;;;;1.16;83.84;100317.89;1732256;81;21078;-69
2021/11/24 06:33:00;;;;;;;18.00;12.10;;;;;;;1.15;84.00;100321.59;1736264;82;21026;-69
2021/11/24 06:35:27;;;;;;;17.55;11.38;;;;;;;1.17;84.06;100316.05;1724463;82;21063;-71
2021/11/24 06:37:54;;;;;;;17.42;12.10;;;;;;;1.24;84.04;100320.94;1717815;83;21028;-71
2021/11/24 06:40:20;;;;;;;17.15;12.45;;;;;;;1.29;83.93;100319.30;1718233;83;21019;-71
2021/11/24 06:42:47;;;;;;;16.70;11.75;;;;;;;1.32;83.82;100316.23;1717799;82;21071;-71
2021/11/24 06:45:14;;;;;;;17.95;11.88;;;;;;;1.27;83.90;100314.66;1718342;83;21534;-71
2021/11/24 06:47:41;;;;;;;14.28;10.65;;;;;;;1.26;84.03;100315.68;1718076;83;21617;-71
2021/11/24 06:50:09;;;;;;;16.10;11.53;;;;;;;1.34;83.99;100317.38;1718090;83;21032;-71
2021/11/24 06:52:36;;;;;;;14.60;11.38;;;;;;;1.35;83.90;100321.70;1717870;83;21099;-71
2021/11/24 06:55:04;;;;;;;16.62;11.05;;;;;;;1.26;84.02;100324.23;1717869;83;21150;-71
2021/11/24 06:57:30;;;;;;;15.88;11.40;;;;;;;1.24;84.19;100321.73;1717889;83;21054;-72
2021/11/24 06:59:57;;;;;;;16.42;11.65;;;;;;;1.31;84.14;100327.97;1717905;82;21051;-71
2021/11/24 07:02:23;;;;;;;;;;;;;;;1.35;84.05;100331.92;1720544;83;21055;-71
2021/11/24 07:04:50;;;;;;;17.65;11.40;;;;;;;1.36;84.06;100330.07;1718088;83;20473;-71
2021/11/24 07:07:16;;;;;;;17.05;12.20;;;;;;;1.28;84.39;100328.87;1718079;82;21538;-71
2021/11/24 07:09:43;;;;;;;18.45;12.23;;;;;;;1.32;84.51;100332.83;1716620;82;21003;-79
2021/11/24 07:12:10;;;;;;;17.00;12.20;;;;;;;1.39;84.34;100341.23;1724381;82;21050;-79
2021/11/24 07:14:37;;;;;;;19.52;12.45;;;;;;;1.45;84.26;100340.97;1712839;83;21514;-80
2021/11/24 07:17:04;;;;;;;17.87;13.00;;;;;;;1.51;84.33;100336.14;1709793;84;21502;-80
2021/11/24 07:19:30;;;;;;;;;;;;;;;1.55;84.41;100333.89;1731618;82;21526;-79
2021/11/24 07:21:57;;;;;;;20.50;12.88;;;;;;;1.59;84.44;100333.81;1724665;82;20429;-79
2021/11/24 07:24:23;;;;;;;18.57;12.68;;;;;;;1.65;84.32;100334.35;1718739;82;21552;-78
2021/11/24 07:26:49;;;;;;;16.82;12.55;;;;;;;1.75;84.03;100331.61;1696395;84;21628;-77
2021/11/24 07:29:16;;;;;;;16.60;12.37;;;;;;;1.89;83.85;100330.62;1697329;84;21073;-78
2021/11/24 07:31:43;;;;;;;16.60;11.53;;;;;;;2.02;83.71;100330.38;1697656;84;21105;-78
2021/11/24 07:34:13;;;;;;;14.40;10.70;;;;;;;2.23;83.66;100332.37;1697667;84;21086;-78
2021/11/24 07:36:40;;;;;;;14.20;10.28;;;;;;;2.47;83.18;100335.85;1710887;83;21042;-79
2021/11/24 07:39:07;;;;;;;13.08;9.83;;;;;;;2.70;82.60;100329.23;1733376;83;20971;-79
2021/11/24 07:41:34;;;;;;;13.15;9.63;;;;;;;2.91;82.18;100329.85;1730784;83;21078;-80
2021/11/24 07:44:00;;;;;;;;;;;;;;;3.08;81.78;100338.86;1701920;83;21026;-78
2021/11/24 07:46:27;;;;;;;14.90;11.68;;;;;;;3.22;81.37;100335.95;1726349;83;20127;-79
2021/11/24 07:48:53;;;;;;;16.75;10.82;;;;;;;3.32;81.04;100338.20;1726607;83;21034;-79
2021/11/24 07:51:20;;;;;;;15.40;12.03;;;;;;;3.45;80.51;100338.16;1726299;83;21637;-78
2021/11/24 07:53:47;;;;;;;16.97;11.95;;;;;;;3.56;80.49;100342.89;1725557;83;21553;-78
2021/11/24 07:56:13;;;;;;;;;;;;;;;3.65;80.43;100336.23;1727888;83;21082;-76
2021/11/24 07:58:41;;;;;;;14.47;12.03;;;;;;;3.74;80.23;100341.70;1725369;83;20163;-74
2021/11/24 08:01:09;;;;;;;15.48;11.30;;;;;;;3.75;79.89;100344.71;1732483;82;21542;-74
2021/11/24 08:03:36;;;;;;;14.50;11.05;;;;;;;3.77;79.21;100353.91;1735336;82;21003;-77
2021/11/24 08:06:03;;;;;;;14.35;11.35;;;;;;;3.69;78.83;100352.27;1731013;82;21652;-75
2021/11/24 08:08:31;;;;;;;15.00;11.28;;;;;;;3.51;78.79;100348.91;1734337;82;21589;-75
2021/11/24 08:10:58;;;;;;;15.85;11.57;;;;;;;3.37;78.97;100350.48;1740177;81;21577;-74
2021/11/24 08:13:26;;;;;;;15.32;11.73;;;;;;;3.27;78.98;100352.79;1744959;82;21027;-75
2021/11/24 08:15:54;;;;;;;14.83;11.12;;;;;;;3.21;78.97;100359.84;1745922;81;21023;-78
2021/11/24 08:18:20;;;;;;;15.10;11.60;;;;;;;3.10;79.15;100348.88;1720810;82;21063;-74
2021/11/24 08:20:48;;;;;;;15.98;11.57;;;;;;;3.04;79.76;100347.03;1745841;81;21071;-75
2021/11/24 08:23:14;;;;;;;13.48;11.08;;;;;;;3.09;80.34;100341.32;1737499;82;21034;-75
2021/11/24 08:25:40;;;;;;;14.78;10.85;;;;;;;3.21;80.45;100342.36;1738565;81;21063;-76
2021/11/24 08:28:07;;;;;;;15.08;10.50;;;;;;;3.37;80.16;100348.63;1737146;82;21118;-74
2021/11/24 08:30:35;;;;;;;16.27;10.28;;;;;;;3.40;79.78;100347.41;1726720;82;21518;-77
2021/11/24 08:33:02;;;;;;;11.08;9.05;;;;;;;3.39;79.83;100345.74;1723522;82;21090;-76
2021/11/24 08:35:28;;;;;;;12.55;9.03;;;;;;;3.39;79.74;100333.11;1734415;82;21092;-76
2021/11/24 08:37:55;;;;;;;12.13;8.83;;;;;;;3.48;79.56;100332.34;1723151;82;21060;-77
2021/11/24 08:40:22;;;;;;;10.48;8.30;;;;;;;3.55;79.44;100333.16;1723344;82;21085;-76
2021/11/24 08:42:48;;;;;;;10.75;8.45;;;;;;;3.61;79.63;100330.16;1723451;82;21060;-76
2021/11/24 08:45:14;;;;;;;9.95;8.20;;;;;;;3.68;79.77;100325.06;1723662;82;21123;-77
2021/11/24 08:47:41;;;;;;;10.45;7.62;;;;;;;3.80;79.67;100330.59;1732654;82;21095;-81
2021/11/24 08:50:11;;;;;;;8.98;7.28;;;;;;;3.89;78.77;100338.75;1738873;81;21040;-74
2021/11/24 08:52:37;;;;;;;10.93;8.25;;;;;;;3.85;78.31;100334.31;1737298;82;21079;-74
2021/11/24 08:55:06;;;;;;;10.25;8.15;;;;;;;3.79;78.22;100335.69;1729535;82;21104;-75
2021/11/24 08:57:33;;;;;;;8.45;6.28;;;;;;;3.74;78.13;100332.80;1723165;82;21493;-79
2021/11/24 08:59:59;;;;;;;9.78;6.75;;;;;;;3.77;77.95;100333.20;1685734;84;21055;-76
2021/11/24 09:02:28;;;;;;;8.30;6.75;;;;;;;3.77;77.63;100330.50;1738179;82;21039;-77
2021/11/24 09:04:55;;;;;;;9.65;6.80;;;;;;;3.66;77.51;100326.29;1733571;81;21495;-76
2021/11/24 09:07:21;;;;;;;10.30;6.55;;;;;;;3.52;77.50;100325.52;1727081;82;21062;-77
2021/11/24 09:09:49;;;;;;;8.80;6.25;;;;;;;3.48;77.54;100330.48;1731010;82;21074;-76
2021/11/24 09:12:15;;;;;;;7.33;5.65;;;;;;;3.53;77.37;100335.25;1731366;82;21031;-75
2021/11/24 09:14:42;;;;;;;9.40;5.92;;;;;;;3.54;77.27;100334.73;1735855;82;21027;-76
2021/11/24 09:17:09;;;;;;;9.60;6.95;;;;;;;3.50;77.37;100348.62;1726812;82;21071;-75
2021/11/24 09:19:35;;;;;;;14.28;8.48;;;;;;;3.44;77.45;100345.92;1726864;82;21015;-73
2021/11/24 09:22:05;;;;;;;11.35;8.38;;;;;;;3.47;77.43;100346.88;1725526;81;21091;-74
2021/11/24 09:24:31;;;;;;;12.43;8.48;;;;;;;3.48;76.96;100345.30;1684768;83;21059;-75
2021/11/24 09:27:03;;;;;;;12.23;8.65;;;;;;;3.45;77.03;100342.20;1717720;83;21127;-74
2021/11/24 09:29:27;;;;;;;10.45;7.92;;;;;;;3.41;77.42;100348.52;1734971;82;21012;-75
2021/11/24 09:31:55;;;;;;;11.70;8.13;;;;;;;3.40;77.63;100342.81;1729566;81;21027;-75
2021/11/24 09:34:22;;;;;;;10.82;7.92;;;;;;;3.47;77.65;100344.98;1718112;82;21553;-75
2021/11/24 09:36:48;;;;;;;11.48;7.58;;;;;;;3.55;77.52;100341.75;1721668;82;21408;-74
2021/11/24 09:39:15;;;;;;;12.75;8.48;;;;;;;3.56;77.50;100340.72;1733047;82;21059;-75
2021/11/24 09:41:44;;;;;;;12.45;8.90;;;;;;;3.50;77.60;100344.58;1726140;81;21162;-74
2021/11/24 09:44:11;;;;;;;11.15;8.43;;;;;;;3.44;77.57;100348.61;1728416;82;20999;-74
2021/11/24 09:46:39;;;;;;;11.65;8.68;;;;;;;3.49;77.58;100343.44;1679345;84;21087;-74
2021/11/24 09:49:05;;;;;;;10.20;8.23;;;;;;;3.54;77.43;100336.08;1711221;82;21047;-73
2021/11/24 09:51:33;;;;;;;11.60;8.38;;;;;;;3.55;77.36;100341.23;1722684;81;21079;-75
2021/11/24 09:54:01;;;;;;;12.13;8.88;;;;;;;3.51;77.42;100339.48;1719977;82;21066;-74
2021/11/24 09:56:28;;;;;;;12.43;8.80;;;;;;;3.48;77.53;100341.77;1737570;81;21138;-75
2021/11/24 09:58:54;;;;;;;11.70;8.70;;;;;;;3.56;77.56;100333.98;1732347;82;20992;-74
2021/11/24 10:01:21;;;;;;;12.40;9.35;;;;;;;3.63;77.11;100337.48;1718163;83;21063;-74
2021/11/24 10:03:48;;;;;;;11.57;8.50;;;;;;;3.61;76.87;100336.89;1700508;83;21121;-75
2021/11/24 10:06:15;;;;;;;11.88;8.88;;;;;;;3.58;77.12;100335.97;1683514;85;21122;-75
2021/11/24 10:08:42;;;;;;;11.97;9.15;;;;;;;3.59;77.01;100334.39;1683254;85;21585;-75
2021/11/24 10:11:09;;;;;;;10.35;7.70;;;;;;;3.65;76.83;100340.81;1710211;82;21048;-75
2021/11/24 10:13:36;;;;;;;12.58;8.95;;;;;;;3.75;76.55;100342.53;1723922;82;21570;-76
2021/11/24 10:16:04;;;;;;;11.97;9.23;;;;;;;3.75;76.50;100343.37;1717942;82;21040;-76
2021/11/24 10:18:33;;;;;;;12.58;8.35;;;;;;;3.71;76.60;100338.09;1729920;82;21558;-75
2021/11/24 10:21:10;;;;;;;12.47;8.40;;;;;;;3.72;76.76;100336.23;1736546;81;21003;-75
2021/11/24 10:23:44;;;;;;;10.78;8.03;;;;;;;3.82;76.60;100337.44;1735159;82;21023;-77
2021/11/24 10:26:32;;;;;;;11.80;8.88;;;;;;;3.84;76.42;100337.20;1731507;82;21059;-77
2021/11/24 10:29:11;;;;;;;11.55;8.63;;;;;;;3.79;76.47;100337.03;1735966;82;21011;-77
2021/11/24 10:31:57;;;;;;;11.48;8.70;;;;;;;3.72;76.58;100330.30;1727292;81;21079;-77
2021/11/24 10:34:33;;;;;;;11.43;9.05;;;;;;;3.76;76.53;100323.97;1718207;82;21063;-77
2021/11/24 10:37:16;;;;;;;11.73;9.48;;;;;;;3.83;76.09;100332.84;1721767;82;21035;-77
2021/11/24 10:39:53;;;;;;;14.00;10.65;;;;;;;3.77;75.93;100327.81;1717766;83;21613;-77
2021/11/24 10:42:36;;;;;;;15.70;10.55;;;;;;;3.73;76.16;100331.96;1712612;82;21008;-77
2021/11/24 10:45:19;;;;;;;12.78;9.98;;;;;;;3.72;76.10;100320.88;1739290;81;21084;-77
2021/11/24 10:47:56;;;;;;;11.12;9.18;;;;;;;3.79;75.88;100323.56;1688064;85;21049;-76
2021/11/24 10:50:30;;;;;;;;;;;;;;;3.77;75.74;100322.94;1689657;84;21073;-76
2021/11/24 10:52:57;;;;;;;13.65;10.18;;;;;;;3.75;76.08;100320.48;1687843;84;20114;-77
2021/11/24 10:55:30;;;;;;;12.35;9.65;;;;;;;3.71;76.37;100327.84;1717718;83;21102;-77
2021/11/24 10:58:04;;;;;;;11.88;9.33;;;;;;;3.80;76.16;100317.12;1718034;83;21071;-77
2021/11/24 11:00:39;;;;;;;12.30;9.63;;;;;;;3.87;75.75;100319.27;1718146;82;21051;-77
2021/11/24 11:03:07;;;;;;;13.53;9.70;;;;;;;3.81;75.76;100319.61;1732601;82;21526;-78
2021/11/24 11:05:34;;;;;;;15.03;9.90;;;;;;;3.80;75.90;100310.39;1736520;81;21063;-77
2021/11/24 11:08:05;;;;;;;13.65;9.68;;;;;;;3.84;75.74;100315.66;1727328;82;21039;-78
2021/11/24 11:10:38;;;;;;;12.65;9.55;;;;;;;3.90;75.05;100317.48;1721805;82;21063;-78
2021/11/24 11:13:11;;;;;;;13.18;10.13;;;;;;;3.81;75.11;100317.44;1725340;82;21019;-78
2021/11/24 11:15:44;;;;;;;13.28;10.38;;;;;;;3.73;75.34;100311.77;1727832;82;21075;-78
2021/11/24 11:18:15;;;;;;;12.28;9.95;;;;;;;3.74;75.59;100303.17;1729882;82;21045;-78
2021/11/24 11:20:51;;;;;;;12.50;10.03;;;;;;;3.85;75.60;100305.20;1679386;84;21091;-78
2021/11/24 11:23:27;;;;;;;13.03;10.50;;;;;;;3.90;75.50;100305.36;1671681;85;21062;-78
2021/11/24 11:26:08;;;;;;;16.02;10.03;;;;;;;3.85;75.54;100305.20;1677082;83;21082;-78
2021/11/24 11:28:42;;;;;;;13.45;10.30;;;;;;;3.78;75.57;100312.48;1680440;85;21054;-76